Cascade Locks, Oregon
Current Conditions -  °F | °C
As of 6:59 AM on Thursday 18 Dec 2014 (Local Time) from K4S2 Reporting Station
Overcast Overcast  
Wind Chill: 37°   Ceiling: 1000
Heat Index: 37°   Visibility: 10mi
Dew Point: 37°   Wind: 0mph
Humidity: 100%   Direction: NA
Pressure: 30.03"   Gusts: NA
Location:  45.67°N, 121.89°W
Report Text: K4S2 181459Z AUTO 00000KT 10SM OVC010 03/03 A3003 RMK AO2 SLP185 T00300030
Loading
Personal Weather Stations






























Interactive Weather Map New forecast layout! Learn more

10-Day Weather Forecast

Advertisements
Track Severe Weather on mobile